Oswego, NY

9:53 AM EDT on August 25, 2016 (GMT -0400)
East side Of Oswego | | Change Station

Elev 338 ft 43.45 °N, 76.50 °W | Updated 2 seconds ago

Light Rain
Light Rain
72.0 °F
Feels Like 72.0 °F
N
4.0
Wind Variable Wind from SSE
Gusts 12.0 mph

Today
High -- | Low -- °F
--% Chance of Precip.
Yesterday
High -- | Low -- °F
Precip. -- in
Pressure 29.96 in
Visibility 7.0 miles
Clouds Mostly Cloudy 8000 ft
Overcast 9000 ft
Dew Point 68 °F
Humidity 88%
Rainfall 0.02 in
Snow Depth Not available.
6:22 AM 7:52 PM
Last Quarter, 45% visible
METAR KFZY 251254Z AUTO 23006KT 7SM -RA BKN080 OVC090 22/19 A2997 RMK AO2 SLP146 P0002 T02170194
Pressure 29.96 in
Visibility 7.0 miles
Clouds Mostly Cloudy 8000 ft
Overcast 9000 ft
Dew Point 68 °F
Humidity 88%
Rainfall 0.02 in
Snow Depth Not available.
6:22 AM 7:52 PM
Last Quarter, 45% visible
METAR KFZY 251254Z AUTO 23006KT 7SM -RA BKN080 OVC090 22/19 A2997 RMK AO2 SLP146 P0002 T02170194

10-Day Weather Forecast

Almanac

Astronomy

Aug. 25, 2016 Rise Set
Actual Time
Civil Twilight
Nautical Twilight
Astronomical Twilight
Moon
Length of Visible Light
Length of Day
Tomorrow will be .
, % of the Moon is Illuminated

Today's Extremes

State Highs State Lows

Community

WunderPhotos

Upload Photos

1,934,847 photos uploaded!

WunderBlog® & News

Nearby

Air Quality

  Air Quality AQ Index Pollutant
Not available.

Snow Depth

Station Depth Elevation

Earthquake Activity

City Distance Mag. Time & Date
Minimum magnitude displayed is 2.5.

Coastal Water Temperatures

Place Temperature

Stations

Nearby Weather Stations

Station Location Temp. Windchill Dew Point Humidity Wind Precip. Elev Updated Type
                   

Watches & Warnings

There are currently no watches in effect.